createdAt,value
2022-10-08T00:01:16.374Z,23.00
2022-10-08T00:03:20.354Z,22.42
2022-10-08T00:05:23.005Z,19.30
2022-10-08T00:07:26.986Z,20.30
2022-10-08T00:09:29.647Z,19.48
2022-10-08T00:11:34.360Z,15.85
2022-10-08T00:13:41.580Z,17.30
2022-10-08T00:15:44.215Z,20.88
2022-10-08T00:17:46.893Z,17.55
2022-10-08T00:19:49.676Z,19.13
2022-10-08T00:21:56.838Z,16.95
2022-10-08T00:24:02.311Z,15.10
2022-10-08T00:26:07.060Z,18.70
2022-10-08T00:28:10.844Z,22.85
2022-10-08T00:30:14.347Z,20.88
2022-10-08T00:32:19.851Z,20.38
2022-10-08T00:34:24.350Z,14.52
2022-10-08T00:36:31.919Z,14.57
2022-10-08T00:38:34.629Z,13.32
2022-10-08T00:40:44.732Z,14.35
2022-10-08T00:42:47.573Z,14.85
2022-10-08T00:44:55.188Z,16.05
2022-10-08T00:46:57.888Z,19.85
2022-10-08T00:49:04.113Z,13.02
2022-10-08T00:51:06.919Z,13.98
2022-10-08T00:53:10.809Z,14.10
2022-10-08T00:55:16.113Z,15.23
2022-10-08T00:57:20.633Z,18.15
2022-10-08T00:59:23.377Z,16.20
2022-10-08T01:01:26.069Z,16.95
2022-10-08T01:03:28.727Z,15.80
2022-10-08T01:05:43.660Z,17.17
2022-10-08T01:07:52.390Z,16.10
2022-10-08T01:10:03.937Z,16.48
2022-10-08T01:12:15.676Z,17.48
2022-10-08T01:14:34.106Z,17.75
2022-10-08T01:18:53.829Z,15.13
2022-10-08T01:21:06.814Z,17.90
2022-10-08T01:23:40.492Z,15.23
2022-10-08T01:25:53.425Z,15.73
2022-10-08T01:28:01.971Z,17.80
2022-10-08T01:30:10.801Z,17.90
2022-10-08T01:32:16.962Z,18.40
2022-10-08T01:34:26.732Z,17.42
2022-10-08T01:36:35.541Z,17.80
2022-10-08T01:38:43.016Z,17.50
2022-10-08T01:40:48.085Z,19.45
2022-10-08T01:42:54.200Z,18.50
2022-10-08T01:45:02.720Z,22.00
2022-10-08T01:47:08.589Z,21.67
2022-10-08T01:49:16.844Z,18.65
2022-10-08T01:51:23.585Z,18.27
2022-10-08T01:53:30.951Z,21.80
2022-10-08T01:55:37.414Z,17.67
2022-10-08T01:57:41.177Z,17.23
2022-10-08T01:59:46.442Z,16.63
2022-10-08T02:01:57.994Z,15.93
2022-10-08T02:04:18.315Z,14.25
2022-10-08T02:06:21.311Z,17.73
2022-10-08T02:08:24.441Z,16.30
2022-10-08T02:10:27.555Z,16.15
2022-10-08T02:12:31.203Z,15.07
2022-10-08T02:14:36.526Z,22.00
2022-10-08T02:16:45.872Z,20.67
2022-10-08T02:18:58.655Z,15.55
2022-10-08T02:21:05.152Z,14.23
2022-10-08T02:23:15.012Z,19.63
2022-10-08T02:25:25.542Z,15.15
2022-10-08T02:27:35.874Z,17.30
2022-10-08T02:29:42.663Z,16.73
2022-10-08T02:31:51.007Z,19.85
2022-10-08T02:34:01.077Z,17.13
2022-10-08T02:36:07.319Z,17.40
2022-10-08T02:38:14.811Z,18.98
2022-10-08T02:40:19.572Z,17.17
2022-10-08T02:42:25.487Z,17.25
2022-10-08T02:44:34.052Z,18.15
2022-10-08T02:46:41.452Z,16.60
2022-10-08T02:48:50.993Z,21.35
2022-10-08T02:50:58.478Z,17.63
2022-10-08T02:53:01.893Z,16.90
2022-10-08T02:55:12.941Z,20.15
2022-10-08T02:57:20.109Z,16.95
2022-10-08T02:59:23.854Z,18.58
2022-10-08T03:01:36.882Z,15.88
2022-10-08T03:03:47.443Z,15.45
2022-10-08T03:05:52.561Z,16.73
2022-10-08T03:07:57.669Z,17.30
2022-10-08T03:10:05.452Z,14.55
2022-10-08T03:12:08.590Z,14.20
2022-10-08T03:14:14.699Z,15.20
2022-10-08T03:16:21.915Z,16.65
2022-10-08T03:18:26.007Z,12.13
2022-10-08T03:20:30.328Z,12.52
2022-10-08T03:22:34.213Z,11.02
2022-10-08T03:24:38.313Z,20.08
2022-10-08T03:26:41.607Z,14.65
2022-10-08T03:28:44.393Z,13.85
2022-10-08T03:30:47.558Z,13.82
2022-10-08T03:32:50.274Z,13.82
2022-10-08T03:34:53.426Z,13.55
2022-10-08T03:36:56.018Z,14.35
2022-10-08T03:38:58.830Z,13.85
2022-10-08T03:41:02.816Z,13.05
2022-10-08T03:43:05.385Z,13.43
2022-10-08T03:45:08.573Z,12.57
2022-10-08T03:47:11.133Z,12.98
2022-10-08T03:49:13.754Z,13.77
2022-10-08T03:51:16.849Z,12.07
2022-10-08T03:53:19.457Z,13.73
2022-10-08T03:55:22.031Z,16.20
2022-10-08T03:57:25.954Z,13.35
2022-10-08T03:59:28.641Z,15.50
2022-10-08T04:01:31.714Z,13.30
2022-10-08T04:03:34.661Z,12.02
2022-10-08T04:05:37.715Z,10.68
2022-10-08T04:07:40.348Z,12.73
2022-10-08T04:09:42.949Z,13.48
2022-10-08T04:11:45.498Z,10.65
2022-10-08T04:13:49.434Z,12.15
2022-10-08T04:15:52.081Z,13.20
2022-10-08T04:17:54.701Z,13.27
2022-10-08T04:19:57.296Z,18.40
2022-10-08T04:21:59.840Z,14.43
2022-10-08T04:24:02.421Z,12.75
2022-10-08T04:26:05.327Z,14.07
2022-10-08T04:28:07.951Z,11.45
2022-10-08T04:30:12.951Z,12.05
2022-10-08T04:32:17.127Z,12.15
2022-10-08T04:34:19.687Z,10.45
2022-10-08T04:36:23.760Z,12.70
2022-10-08T04:38:26.449Z,14.25
2022-10-08T04:40:29.011Z,13.63
2022-10-08T04:42:31.597Z,14.07
2022-10-08T04:44:34.183Z,14.50
2022-10-08T04:46:38.124Z,16.15
2022-10-08T04:48:41.398Z,12.65
2022-10-08T04:50:43.962Z,12.75
2022-10-08T04:52:46.718Z,15.25
2022-10-08T04:54:50.051Z,14.27
2022-10-08T04:56:52.658Z,12.50
2022-10-08T04:58:56.049Z,12.15
2022-10-08T05:00:58.611Z,13.13
2022-10-08T05:03:02.626Z,11.05
2022-10-08T05:05:05.976Z,12.98
2022-10-08T05:07:08.527Z,11.85
2022-10-08T05:09:11.096Z,9.35
2022-10-08T05:11:14.431Z,15.50
2022-10-08T05:13:17.075Z,14.65
2022-10-08T05:15:19.669Z,15.65
2022-10-08T05:17:22.247Z,12.20
2022-10-08T05:19:26.482Z,13.15
2022-10-08T05:21:31.259Z,12.10
2022-10-08T05:23:34.495Z,13.63
2022-10-08T05:25:37.700Z,14.90
2022-10-08T05:27:40.336Z,14.93
2022-10-08T05:29:42.921Z,14.15
2022-10-08T05:31:45.815Z,14.57
2022-10-08T05:33:48.355Z,12.57
2022-10-08T05:35:52.388Z,13.85
2022-10-08T05:37:55.006Z,13.20
2022-10-08T05:39:57.566Z,12.20
2022-10-08T05:42:00.126Z,10.60
2022-10-08T05:44:02.921Z,11.90
2022-10-08T05:46:05.849Z,11.68
2022-10-08T05:48:08.453Z,12.90
2022-10-08T05:50:11.030Z,11.90
2022-10-08T05:52:14.965Z,12.85
2022-10-08T05:54:18.702Z,10.80
2022-10-08T05:56:22.963Z,12.13
2022-10-08T05:58:30.295Z,11.73
2022-10-08T06:00:33.146Z,13.00
2022-10-08T06:02:35.736Z,12.15
2022-10-08T06:04:38.448Z,10.98
2022-10-08T06:06:42.847Z,9.80
2022-10-08T06:08:47.108Z,12.00
2022-10-08T06:10:50.756Z,11.55
2022-10-08T06:12:53.430Z,12.02
2022-10-08T06:14:56.122Z,11.57
2022-10-08T06:16:58.680Z,9.23
2022-10-08T06:19:03.166Z,11.15
2022-10-08T06:21:08.273Z,10.00
2022-10-08T06:23:10.850Z,9.27
2022-10-08T06:25:14.851Z,12.63
2022-10-08T06:27:17.426Z,12.38
2022-10-08T06:29:20.280Z,10.10
2022-10-08T06:31:23.120Z,11.00
2022-10-08T06:33:25.745Z,10.15
2022-10-08T06:35:28.314Z,12.07
2022-10-08T06:37:30.930Z,11.68
2022-10-08T06:39:33.503Z,9.35
2022-10-08T06:41:38.067Z,14.75
2022-10-08T06:43:40.675Z,9.23
2022-10-08T06:45:44.640Z,11.60
2022-10-08T06:47:49.401Z,11.95
2022-10-08T06:49:51.999Z,11.00
2022-10-08T06:51:54.612Z,10.23
2022-10-08T06:54:05.783Z,9.57
2022-10-08T06:56:14.360Z,8.10
2022-10-08T06:58:18.302Z,10.15
2022-10-08T07:00:21.100Z,10.00
2022-10-08T07:02:23.750Z,8.48
2022-10-08T07:04:26.432Z,8.82
2022-10-08T07:06:29.462Z,11.32
2022-10-08T07:08:32.247Z,7.72
2022-10-08T07:10:34.948Z,9.50
2022-10-08T07:12:37.617Z,8.82
2022-10-08T07:14:41.536Z,6.97
2022-10-08T07:16:44.245Z,8.52
2022-10-08T07:18:48.068Z,12.10
2022-10-08T07:20:56.554Z,8.95
2022-10-08T07:22:59.162Z,10.00
2022-10-08T07:25:01.779Z,9.70
2022-10-08T07:27:04.525Z,11.05
2022-10-08T07:29:09.273Z,8.38
2022-10-08T07:31:15.490Z,8.85
2022-10-08T07:33:18.164Z,6.32
2022-10-08T07:35:20.783Z,6.95
2022-10-08T07:37:23.422Z,8.18
2022-10-08T07:39:26.498Z,7.75
2022-10-08T07:41:30.292Z,8.40
2022-10-08T07:43:33.018Z,7.40
2022-10-08T07:45:35.964Z,7.25
2022-10-08T07:47:39.949Z,11.23
2022-10-08T07:49:42.497Z,7.60
2022-10-08T07:51:46.142Z,7.32
2022-10-08T07:53:49.256Z,9.82
2022-10-08T07:55:51.830Z,5.30
2022-10-08T07:57:54.484Z,8.23
2022-10-08T07:59:57.082Z,6.85
2022-10-08T08:01:59.778Z,9.32
2022-10-08T08:04:06.123Z,7.03
2022-10-08T08:06:12.092Z,7.28
2022-10-08T08:08:14.804Z,8.38
2022-10-08T08:10:17.647Z,8.30
2022-10-08T08:12:20.221Z,7.68
2022-10-08T08:14:22.945Z,7.15
2022-10-08T08:16:27.219Z,8.52
2022-10-08T08:18:31.220Z,8.10
2022-10-08T08:20:35.183Z,7.90
2022-10-08T08:22:37.777Z,6.45
2022-10-08T08:24:40.438Z,6.65
2022-10-08T08:26:44.309Z,6.78
2022-10-08T08:28:51.453Z,6.95
2022-10-08T08:30:54.016Z,8.25
2022-10-08T08:32:56.629Z,6.47
2022-10-08T08:34:59.307Z,6.50
2022-10-08T08:37:03.254Z,7.80
2022-10-08T08:39:07.243Z,7.60
2022-10-08T08:41:23.990Z,9.27
2022-10-08T08:43:26.596Z,8.27
2022-10-08T08:45:46.355Z,8.02
2022-10-08T08:47:57.028Z,8.98
2022-10-08T08:50:04.289Z,10.60
2022-10-08T08:52:12.045Z,7.82
2022-10-08T08:54:14.771Z,7.55
2022-10-08T08:56:20.858Z,9.60
2022-10-08T08:58:34.785Z,9.73
2022-10-08T09:00:41.670Z,9.38
2022-10-08T09:02:53.016Z,7.00
2022-10-08T09:05:00.395Z,10.52
2022-10-08T09:07:07.840Z,7.55
2022-10-08T09:09:28.098Z,12.52
2022-10-08T09:11:31.336Z,9.00
2022-10-08T09:13:38.654Z,9.65
2022-10-08T09:15:43.230Z,8.40
2022-10-08T09:17:49.523Z,9.10
2022-10-08T09:19:52.404Z,7.60
2022-10-08T09:21:55.026Z,10.43
2022-10-08T09:23:57.693Z,9.20
2022-10-08T09:26:05.047Z,8.07
2022-10-08T09:28:07.946Z,8.02
2022-10-08T09:30:28.889Z,7.78
2022-10-08T09:32:33.296Z,7.40
2022-10-08T09:34:36.365Z,6.28
2022-10-08T09:36:43.152Z,8.98
2022-10-08T09:38:45.794Z,6.63
2022-10-08T09:41:02.178Z,7.38
2022-10-08T09:43:17.691Z,12.60
2022-10-08T09:45:33.982Z,8.80
2022-10-08T09:47:36.671Z,8.90
2022-10-08T09:49:39.317Z,7.07
2022-10-08T09:51:43.198Z,7.70
2022-10-08T09:53:49.621Z,7.93
2022-10-08T09:55:56.073Z,7.05
2022-10-08T09:58:01.162Z,8.20
2022-10-08T10:00:06.705Z,7.63
2022-10-08T10:02:28.658Z,7.53
2022-10-08T10:04:36.284Z,7.10
2022-10-08T10:06:45.486Z,9.32
2022-10-08T10:08:56.292Z,9.13
2022-10-08T10:10:59.236Z,9.80
2022-10-08T10:13:07.829Z,6.32
2022-10-08T10:15:16.425Z,6.40
2022-10-08T10:17:30.158Z,8.68
2022-10-08T10:19:39.961Z,5.00
2022-10-08T10:21:52.648Z,8.57
2022-10-08T10:24:06.898Z,7.72
2022-10-08T10:26:14.202Z,5.82
2022-10-08T10:28:24.192Z,8.45
2022-10-08T10:30:28.790Z,8.98
2022-10-08T10:32:38.034Z,7.88
2022-10-08T10:34:44.096Z,8.40
2022-10-08T10:36:53.676Z,9.60
2022-10-08T10:39:10.204Z,11.68
2022-10-08T10:41:20.420Z,7.30
2022-10-08T10:43:40.405Z,8.95
2022-10-08T10:45:48.772Z,8.27
2022-10-08T10:47:51.983Z,11.30
2022-10-08T10:49:55.052Z,8.77
2022-10-08T10:52:05.933Z,7.15
2022-10-08T10:54:32.386Z,9.45
2022-10-08T10:56:39.015Z,8.23
2022-10-08T10:58:55.220Z,8.82
2022-10-08T11:01:06.032Z,7.82
2022-10-08T11:03:17.260Z,8.73
2022-10-08T11:05:24.416Z,8.40
2022-10-08T11:07:41.638Z,7.35
2022-10-08T11:09:51.498Z,6.38
2022-10-08T11:12:00.954Z,9.05
2022-10-08T11:14:22.283Z,10.07
2022-10-08T11:16:35.719Z,8.98
2022-10-08T11:18:48.976Z,9.05
2022-10-08T11:21:03.559Z,6.70
2022-10-08T11:23:16.556Z,7.45
2022-10-08T11:25:29.104Z,11.40
2022-10-08T11:27:42.296Z,11.18
2022-10-08T11:29:56.597Z,6.90
2022-10-08T11:31:59.840Z,6.95
2022-10-08T11:34:04.634Z,6.43
2022-10-08T11:36:20.190Z,8.30
2022-10-08T11:38:29.862Z,7.93
2022-10-08T11:40:38.397Z,8.23
2022-10-08T11:42:49.175Z,9.68
2022-10-08T11:44:53.523Z,9.23
2022-10-08T11:47:35.257Z,8.25
2022-10-08T11:49:52.381Z,7.95
2022-10-08T11:51:55.369Z,6.78
2022-10-08T11:54:07.004Z,6.90
2022-10-08T11:56:12.543Z,6.07
2022-10-08T11:58:21.997Z,6.75
2022-10-08T12:00:39.825Z,12.30
2022-10-08T12:02:46.266Z,5.20
2022-10-08T12:04:50.068Z,5.15
2022-10-08T12:07:04.189Z,6.85
2022-10-08T12:09:08.857Z,8.63
2022-10-08T12:11:41.850Z,7.13
2022-10-08T12:13:45.174Z,8.45
2022-10-08T12:15:57.270Z,8.48
2022-10-08T12:18:01.612Z,9.32
2022-10-08T12:20:20.192Z,7.97
2022-10-08T12:22:42.664Z,7.45
2022-10-08T12:24:56.585Z,7.85
2022-10-08T12:27:27.772Z,9.25
2022-10-08T12:29:53.939Z,6.55
2022-10-08T12:32:03.140Z,5.68
2022-10-08T12:34:17.409Z,5.38
2022-10-08T12:36:27.445Z,8.23
2022-10-08T12:38:38.914Z,6.10
2022-10-08T12:40:44.193Z,7.28
2022-10-08T12:42:50.472Z,8.82
2022-10-08T12:45:05.374Z,8.95
2022-10-08T12:47:20.050Z,6.13
2022-10-08T12:49:30.433Z,7.97
2022-10-08T12:51:41.337Z,8.25
2022-10-08T12:53:45.758Z,7.50
2022-10-08T12:55:53.395Z,6.03
2022-10-08T12:57:56.209Z,5.75
2022-10-08T13:00:00.612Z,6.63
2022-10-08T13:02:03.339Z,7.15
2022-10-08T13:04:19.182Z,6.18
2022-10-08T13:06:31.747Z,6.15
2022-10-08T13:08:38.640Z,7.63
2022-10-08T13:10:43.961Z,8.25
2022-10-08T13:13:00.490Z,7.25
2022-10-08T13:15:08.712Z,8.90
2022-10-08T13:17:29.680Z,7.15
2022-10-08T13:19:36.811Z,5.25
2022-10-08T13:21:40.122Z,5.13
2022-10-08T13:23:44.777Z,7.85
2022-10-08T13:25:47.520Z,6.38
2022-10-08T13:28:08.522Z,4.70
2022-10-08T13:30:32.880Z,6.93
2022-10-08T13:32:38.205Z,7.00
2022-10-08T13:34:44.712Z,6.05
2022-10-08T13:36:53.463Z,7.10
2022-10-08T13:38:56.186Z,5.38
2022-10-08T13:41:03.996Z,7.78
2022-10-08T13:43:07.706Z,5.45
2022-10-08T13:45:17.093Z,6.75
2022-10-08T13:47:34.592Z,4.57
2022-10-08T13:49:37.448Z,4.75
2022-10-08T13:51:42.241Z,4.50
2022-10-08T13:53:45.863Z,8.38
2022-10-08T13:55:50.471Z,4.85
2022-10-08T13:57:54.684Z,7.65
2022-10-08T13:59:58.148Z,5.25
2022-10-08T14:02:01.005Z,3.75
2022-10-08T14:04:03.622Z,7.10
2022-10-08T14:06:06.566Z,5.03
2022-10-08T14:08:15.652Z,5.30
2022-10-08T14:10:19.270Z,4.88
2022-10-08T14:12:27.346Z,8.80
2022-10-08T14:14:29.930Z,6.28
2022-10-08T14:16:32.552Z,6.50
2022-10-08T14:18:35.187Z,6.18
2022-10-08T14:20:39.203Z,5.47
2022-10-08T14:22:42.109Z,5.30
2022-10-08T14:24:46.255Z,5.70
2022-10-08T14:26:48.877Z,4.15
2022-10-08T14:28:51.655Z,4.57
2022-10-08T14:30:55.097Z,6.57
2022-10-08T14:32:58.062Z,5.40
2022-10-08T14:35:04.091Z,5.82
2022-10-08T14:37:06.765Z,5.30
2022-10-08T14:39:09.876Z,5.82
2022-10-08T14:41:16.562Z,6.95
2022-10-08T14:43:20.149Z,5.03
2022-10-08T14:45:23.192Z,6.00
2022-10-08T14:47:26.030Z,6.32
2022-10-08T14:49:28.903Z,5.50
2022-10-08T14:51:38.250Z,5.50
2022-10-08T14:53:40.872Z,5.35
2022-10-08T14:56:00.777Z,7.28
2022-10-08T14:58:07.451Z,4.05
2022-10-08T15:00:11.284Z,4.35
2022-10-08T15:02:14.094Z,4.10
2022-10-08T15:04:17.483Z,4.20
2022-10-08T15:06:20.122Z,5.25
2022-10-08T15:08:22.699Z,4.78
2022-10-08T15:10:25.643Z,4.43
2022-10-08T15:12:28.354Z,5.13
2022-10-08T15:14:37.083Z,5.80
2022-10-08T15:16:43.910Z,3.92
2022-10-08T15:18:46.559Z,3.78
2022-10-08T15:20:54.719Z,3.50
2022-10-08T15:22:57.294Z,4.95
2022-10-08T15:24:59.979Z,4.88
2022-10-08T15:27:02.562Z,5.68
2022-10-08T15:29:05.557Z,4.72
2022-10-08T15:31:14.140Z,6.57
2022-10-08T15:33:17.519Z,4.18
2022-10-08T15:35:20.654Z,4.00
2022-10-08T15:37:23.347Z,3.25
2022-10-08T15:39:26.550Z,3.70
2022-10-08T15:41:31.405Z,3.95
2022-10-08T15:43:34.830Z,5.95
2022-10-08T15:45:43.116Z,4.00
2022-10-08T15:47:49.324Z,4.05
2022-10-08T15:49:51.978Z,4.60
2022-10-08T15:51:57.910Z,7.65
2022-10-08T15:54:02.107Z,3.85
2022-10-08T15:56:05.799Z,3.88
2022-10-08T15:58:08.409Z,3.85
2022-10-08T16:00:12.867Z,4.32
2022-10-08T16:02:17.884Z,5.38
2022-10-08T16:04:22.215Z,4.65
2022-10-08T16:06:27.767Z,2.60
2022-10-08T16:08:31.923Z,4.55
2022-10-08T16:10:34.542Z,2.92
2022-10-08T16:12:37.156Z,4.65
2022-10-08T16:14:39.872Z,3.90
2022-10-08T16:16:43.036Z,3.58
2022-10-08T16:18:46.925Z,4.47
2022-10-08T16:20:52.800Z,5.70
2022-10-08T16:22:55.504Z,4.75
2022-10-08T16:24:58.133Z,4.60
2022-10-08T16:27:00.815Z,4.78
2022-10-08T16:29:05.601Z,4.13
2022-10-08T16:31:11.729Z,3.10
2022-10-08T16:33:14.488Z,5.18
2022-10-08T16:35:17.843Z,3.78
2022-10-08T16:37:22.317Z,7.13
2022-10-08T16:39:25.273Z,4.70
2022-10-08T16:41:30.374Z,5.88
2022-10-08T16:43:32.986Z,4.07
2022-10-08T16:45:36.682Z,5.82
2022-10-08T16:47:39.406Z,5.50
2022-10-08T16:49:42.159Z,5.20
2022-10-08T16:51:45.239Z,4.15
2022-10-08T16:53:50.316Z,3.92
2022-10-08T16:55:52.886Z,4.13
2022-10-08T16:57:55.811Z,6.05
2022-10-08T17:00:00.017Z,4.25
2022-10-08T17:02:03.383Z,4.22
2022-10-08T17:04:07.532Z,4.75
2022-10-08T17:06:11.080Z,4.72
2022-10-08T17:08:13.716Z,6.32
2022-10-08T17:10:18.425Z,4.95
2022-10-08T17:12:22.029Z,5.60
2022-10-08T17:14:24.931Z,5.60
2022-10-08T17:16:29.554Z,4.70
2022-10-08T17:18:33.173Z,6.95
2022-10-08T17:20:36.587Z,6.18
2022-10-08T17:22:39.243Z,7.82
2022-10-08T17:24:42.503Z,5.43
2022-10-08T17:26:46.617Z,5.75
2022-10-08T17:28:51.713Z,7.07
2022-10-08T17:30:54.713Z,4.10
2022-10-08T17:32:57.362Z,4.03
2022-10-08T17:34:59.961Z,5.03
2022-10-08T17:37:02.578Z,5.72
2022-10-08T17:39:07.432Z,6.38
2022-10-08T17:41:11.854Z,7.50
2022-10-08T17:43:15.800Z,4.93
2022-10-08T17:45:18.465Z,5.00
2022-10-08T17:47:23.622Z,4.63
2022-10-08T17:49:28.460Z,4.32
2022-10-08T17:51:31.730Z,5.57
2022-10-08T17:53:34.511Z,5.97
2022-10-08T17:55:37.107Z,5.60
2022-10-08T17:57:40.260Z,7.13
2022-10-08T17:59:44.470Z,5.00
2022-10-08T18:01:47.147Z,6.38
2022-10-08T18:03:54.083Z,7.32
2022-10-08T18:05:58.558Z,5.28
2022-10-08T18:08:01.225Z,4.72
2022-10-08T18:10:05.510Z,5.45
2022-10-08T18:12:08.651Z,6.53
2022-10-08T18:14:11.695Z,7.03
2022-10-08T18:16:18.130Z,5.75
2022-10-08T18:18:20.762Z,6.15
2022-10-08T18:20:23.387Z,7.13
2022-10-08T18:22:26.292Z,8.77
2022-10-08T18:24:29.257Z,5.40
2022-10-08T18:26:34.776Z,4.80
2022-10-08T18:28:37.817Z,4.82
2022-10-08T18:30:40.808Z,4.93
2022-10-08T18:35:11.999Z,5.80
2022-10-08T18:37:14.638Z,7.70
2022-10-08T18:39:21.575Z,7.78
2022-10-08T18:41:31.297Z,6.45
2022-10-08T18:43:36.176Z,5.30
2022-10-08T18:45:39.097Z,5.82
2022-10-08T18:47:41.860Z,7.03
2022-10-08T18:49:45.891Z,9.65
2022-10-08T18:51:50.627Z,8.80
2022-10-08T18:53:54.807Z,6.95
2022-10-08T18:55:57.503Z,8.07
2022-10-08T18:58:00.120Z,5.43
2022-10-08T19:00:03.130Z,4.95
2022-10-08T19:02:05.912Z,8.15
2022-10-08T19:04:12.078Z,4.93
2022-10-08T19:06:16.626Z,8.55
2022-10-08T19:08:19.779Z,8.65
2022-10-08T19:10:22.545Z,6.88
2022-10-08T19:12:25.280Z,7.00
2022-10-08T19:14:28.976Z,5.78
2022-10-08T19:16:32.167Z,9.15
2022-10-08T19:18:34.963Z,6.40
2022-10-08T19:20:37.741Z,5.53
2022-10-08T19:22:41.780Z,5.30
2022-10-08T19:24:44.559Z,7.10
2022-10-08T19:26:48.422Z,7.55
2022-10-08T19:28:52.919Z,7.05
2022-10-08T19:30:55.635Z,8.73
2022-10-08T19:32:58.345Z,6.25
2022-10-08T19:35:01.108Z,7.47
2022-10-08T19:37:03.950Z,10.52
2022-10-08T19:39:10.594Z,5.75
2022-10-08T19:43:15.769Z,6.55
2022-10-08T19:45:18.540Z,8.23
2022-10-08T19:47:21.879Z,8.63
2022-10-08T19:49:24.635Z,7.53
2022-10-08T19:51:28.404Z,7.95
2022-10-08T19:53:31.092Z,7.38
2022-10-08T19:55:38.797Z,10.73
2022-10-08T19:57:41.612Z,8.75
2022-10-08T19:59:44.313Z,9.60
2022-10-08T20:01:47.172Z,8.35
2022-10-08T20:03:52.516Z,6.72
2022-10-08T20:05:55.508Z,9.88
2022-10-08T20:07:58.139Z,9.18
2022-10-08T20:10:00.749Z,9.38
2022-10-08T20:12:05.022Z,8.15
2022-10-08T20:14:08.358Z,10.20
2022-10-08T20:16:13.432Z,8.20
2022-10-08T20:18:16.101Z,7.20
2022-10-08T20:20:32.216Z,8.60
2022-10-08T20:22:36.073Z,8.25
2022-10-08T20:24:38.741Z,9.85
2022-10-08T20:26:43.151Z,7.05
2022-10-08T20:28:49.543Z,8.55
2022-10-08T20:30:52.220Z,9.73
2022-10-08T20:32:55.105Z,7.50
2022-10-08T20:34:57.691Z,7.68
2022-10-08T20:37:02.273Z,10.30
2022-10-08T20:39:05.527Z,8.88
2022-10-08T20:41:09.200Z,13.13
2022-10-08T20:43:11.851Z,11.57
2022-10-08T20:45:16.034Z,9.23
2022-10-08T20:47:18.636Z,9.38
2022-10-08T20:49:21.329Z,6.55
2022-10-08T20:51:26.493Z,8.18
2022-10-08T20:53:29.163Z,7.07
2022-10-08T20:55:31.799Z,7.47
2022-10-08T20:57:34.445Z,10.45
2022-10-08T20:59:37.049Z,11.32
2022-10-08T21:01:41.056Z,10.52
2022-10-08T21:03:45.755Z,10.23
2022-10-08T21:05:48.426Z,11.52
2022-10-08T21:07:51.071Z,9.43
2022-10-08T21:09:53.745Z,11.27
2022-10-08T21:11:56.422Z,10.20
2022-10-08T21:14:01.473Z,8.73
2022-10-08T21:16:05.915Z,10.07
2022-10-08T21:18:10.211Z,8.18
2022-10-08T21:20:12.819Z,9.07
2022-10-08T21:22:15.399Z,8.27
2022-10-08T21:24:18.145Z,10.10
2022-10-08T21:26:22.304Z,9.20
2022-10-08T21:28:24.931Z,8.77
2022-10-08T21:30:27.576Z,9.70
2022-10-08T21:32:30.170Z,9.15
2022-10-08T21:34:34.124Z,8.02
2022-10-08T21:36:38.765Z,11.13
2022-10-08T21:38:41.588Z,8.63
2022-10-08T21:40:44.224Z,10.52
2022-10-08T21:42:47.124Z,8.88
2022-10-08T21:44:49.933Z,9.32
2022-10-08T21:46:52.546Z,7.70
2022-10-08T21:48:56.276Z,8.52
2022-10-08T21:51:02.750Z,13.50
2022-10-08T21:53:05.355Z,9.05
2022-10-08T21:55:08.998Z,9.88
2022-10-08T21:57:16.075Z,10.55
2022-10-08T21:59:18.993Z,10.00
2022-10-08T22:01:27.451Z,9.73
2022-10-08T22:03:30.210Z,8.25
2022-10-08T22:05:32.783Z,14.43
2022-10-08T22:07:36.762Z,10.43
2022-10-08T22:09:39.560Z,8.82
2022-10-08T22:11:42.372Z,7.50
2022-10-08T22:13:45.278Z,12.45
2022-10-08T22:15:52.389Z,11.82
2022-10-08T22:17:55.055Z,10.63
2022-10-08T22:19:57.636Z,10.88
2022-10-08T22:22:00.337Z,8.20
2022-10-08T22:24:05.087Z,8.50
2022-10-08T22:26:10.045Z,10.85
2022-10-08T22:28:12.729Z,10.57
2022-10-08T22:30:15.451Z,8.63
2022-10-08T22:32:18.431Z,9.07
2022-10-08T22:34:21.038Z,10.60
2022-10-08T22:36:26.241Z,10.73
2022-10-08T22:38:29.199Z,8.57
2022-10-08T22:40:33.123Z,9.10
2022-10-08T22:42:35.783Z,7.90
2022-10-08T22:44:38.387Z,9.15
2022-10-08T22:46:41.491Z,7.78
2022-10-08T22:48:44.527Z,8.70
2022-10-08T22:50:47.087Z,6.85
2022-10-08T22:52:51.104Z,11.32
2022-10-08T22:54:53.851Z,6.75
2022-10-08T22:56:57.816Z,6.78
2022-10-08T22:59:00.935Z,9.23
2022-10-08T23:01:05.851Z,8.20
2022-10-08T23:03:08.518Z,8.52
2022-10-08T23:05:11.393Z,11.93
2022-10-08T23:07:14.048Z,8.05
2022-10-08T23:09:16.647Z,9.30
2022-10-08T23:11:19.330Z,10.15
2022-10-08T23:13:23.389Z,10.23
2022-10-08T23:15:26.119Z,10.88
2022-10-08T23:17:28.755Z,12.38
2022-10-08T23:19:31.320Z,12.02
2022-10-08T23:21:34.636Z,12.27
2022-10-08T23:23:37.821Z,11.30
2022-10-08T23:25:40.431Z,10.68
2022-10-08T23:27:43.025Z,12.43
2022-10-08T23:29:46.950Z,13.15
2022-10-08T23:31:49.586Z,13.63
2022-10-08T23:33:53.922Z,14.90
2022-10-08T23:35:56.732Z,12.60
2022-10-08T23:37:59.293Z,14.23
2022-10-08T23:40:01.877Z,13.77
2022-10-08T23:42:04.699Z,14.68
2022-10-08T23:44:07.337Z,15.48
2022-10-08T23:46:12.484Z,12.05
2022-10-08T23:48:15.175Z,15.55
2022-10-08T23:50:17.825Z,12.32
2022-10-08T23:52:20.432Z,12.98
2022-10-08T23:54:23.052Z,12.00
2022-10-08T23:56:25.696Z,16.17
2022-10-08T23:58:28.377Z,13.45
